Portland, Oregon
Current Conditions -  °F | °C
As of 10:53 PM on Wednesday 22 Oct 2014 (Local Time) from KPDX Reporting Station
Light Rain Light Rain  
Wind Chill: 56°   Ceiling: 7000
Heat Index: 56°   Visibility: 10mi
Dew Point: 52°   Wind: 3mph
Humidity: 87%   Direction: 170°S
Pressure: 29.79"   Gusts: NA
Location:  45.51°N, 122.67°W
Report Text: KPDX 230553Z 17003KT 10SM -RA FEW020 BKN070 OVC090 13/11 A2979 RMK AO2 RAB0458 SLP085 P0001 60024 T01330111 10144 20133 52029
Loading
Personal Weather Stations






























Interactive Weather Map New forecast layout! Learn more

10-Day Weather Forecast

Advertisements
Track Severe Weather on mobile